Avalon — PBSF — position and weather

sailwx.info

Track history (hours):
 
Tides and Currents Weather Stations Pressure Air Temp Water Temp Dewpoint Dewpoint Depression Visibility Wind Speed Wind Dir Waves Ship Positions

Avalon

Last reported at 2016-Aug-28 16:33 UTC. Time now 2016-Aug-28 16:44 UTC.
Position N 50°24' E 000°11'.

Length 89 m; draft 3.4 m.

Type: Cargo ship. MMSI: 246578000.

Date/timePositionNaut miles runAvg speedWind from/ knotsBaromVisibWave heightAir tempDewpointWater temp
2016-Aug-28 16:33N 50°24' E 000°11'1010.6
2016-Aug-28 15:33N 50°21' W 000°05'1010.1
2016-Aug-28 14:32N 50°19' W 000°21'90 8.9
2016-Aug-28 04:31N 50°08' W 002°40'1010.9
2016-Aug-28 03:33N 50°07' W 002°56'1110.5
2016-Aug-28 02:33N 50°05' W 003°12'1010.1
2016-Aug-28 01:34N 50°04' W 003°28'10 9.9
2016-Aug-28 00:33N 50°03' W 003°43'10 9.6
2016-Aug-27 23:33N 50°02' W 003°58'9 9.4
2016-Aug-27 22:33N 50°00' W 004°12'9 9.4
2016-Aug-27 21:33N 49°59' W 004°27'9 9.3
2016-Aug-27 20:33N 49°58' W 004°41'9 9.2
2016-Aug-27 19:33N 49°57' W 004°55'9 8.9
2016-Aug-27 18:33N 49°55' W 005°09'9 8.9
2016-Aug-27 17:31N 49°56' W 005°23'9 9.3
2016-Aug-27 16:33N 49°56' W 005°37'14 9.5
2016-Aug-27 15:05N 49°57' W 005°58'42 9.4
2016-Aug-27 10:33N 50°39' W 006°11'9 9.2
2016-Aug-27 09:33N 50°48' W 006°15'10 9.5
2016-Aug-27 08:33N 50°57' W 006°20'10 9.9
2016-Aug-27 07:33N 51°06' W 006°25'1010.1
2016-Aug-27 06:33N 51°16' W 006°31'2010.0
2016-Aug-27 04:32N 51°35' W 006°41'10 9.6
2016-Aug-27 03:33N 51°44' W 006°46'9 9.5
2016-Aug-27 02:33N 51°53' W 006°50'10 9.7
2016-Aug-27 01:33N 52°02' W 006°55'9 9.4
2016-Aug-27 00:33N 52°12' W 006°56'7 7.0
2016-Aug-26 23:33N 52°18' W 007°01'4 0.2
2016-Aug-25 23:33N 52°22' W 006°59'6 5.9
2016-Aug-25 22:33N 52°16' W 006°59'7 7.3
2016-Aug-25 21:34N 52°09' W 006°57'1 1.2
2016-Aug-25 20:34N 52°08' W 006°58'6 5.7
2016-Aug-25 19:33N 52°02' W 006°55'8 7.8
2016-Aug-25 18:33N 51°55' W 006°52'6 6.3
2016-Aug-25 17:33N 51°49' W 006°49'10 9.6
2016-Aug-25 16:33N 51°40' W 006°44'9 9.4
2016-Aug-25 15:34N 51°31' W 006°38'9 9.4
2016-Aug-25 14:33N 51°22' W 006°33'9 9.1
2016-Aug-25 13:34N 51°14' W 006°27'9 9.3
2016-Aug-25 12:34N 51°05' W 006°22'9 9.4
2016-Aug-25 11:33N 50°57' W 006°16'10 9.4
2016-Aug-25 10:31N 50°48' W 006°09'10 9.5
2016-Aug-25 09:29N 50°39' W 006°04'9 9.8
2016-Aug-25 08:33N 50°30' W 005°59'9 9.5
2016-Aug-25 07:33N 50°21' W 005°54'10 9.9
2016-Aug-25 06:33N 50°11' W 005°52'15 7.7
2016-Aug-25 04:33N 49°58' W 005°39'1110.1
2016-Aug-25 03:31N 49°57' W 005°22'1110.7
2016-Aug-25 02:29N 49°56' W 005°05'910.3
2016-Aug-25 01:34N 49°58' W 004°51'10 9.7
2016-Aug-25 00:34N 49°60' W 004°36'9 9.2
2016-Aug-24 23:34N 50°01' W 004°22'9 8.9
2016-Aug-24 22:32N 50°03' W 004°08'8 8.6
2016-Aug-24 21:33N 50°04' W 003°55'9 8.8
2016-Aug-24 20:34N 50°06' W 003°41'10 9.7
2016-Aug-24 19:34N 50°07' W 003°26'1110.7
2016-Aug-24 18:34N 50°10' W 003°10'1211.5
2016-Aug-24 17:33N 50°12' W 002°53'1211.8
2016-Aug-24 16:33N 50°15' W 002°34'2010.2
2016-Aug-24 14:33N 50°18' W 002°03'9 8.0
2016-Aug-24 13:22N 50°20' W 001°49'6 7.0
2016-Aug-24 12:33N 50°21' W 001°40'7 6.8
2016-Aug-24 11:34N 50°22' W 001°29'7 7.2
2016-Aug-24 10:32N 50°23' W 001°18'8 8.3
2016-Aug-24 09:34N 50°25' W 001°05'1110.5
2016-Aug-24 08:31N 50°26' W 000°48'1411.9
2016-Aug-24 07:22N 50°29' W 000°27'1011.6
2016-Aug-24 06:29N 50°31' W 000°12'2110.9
2016-Aug-24 04:33N 50°37' E 000°20'10 9.7
2016-Aug-24 03:33N 50°39' E 000°35'22 8.8
2016-Aug-24 01:05N 50°52' E 001°03'5 9.3
2016-Aug-24 00:33N 50°55' E 001°09'1111.0
2016-Aug-23 23:34N 51°02' E 001°23'1312.8
2016-Aug-23 22:34N 51°10' E 001°38'1211.9
2016-Aug-23 21:33N 51°20' E 001°50'1110.6
2016-Aug-23 20:34N 51°29' E 001°58'10 9.5
2016-Aug-23 19:33N 51°36' E 002°08'9 8.8
2016-Aug-23 18:34N 51°43' E 002°17'8 8.5
2016-Aug-23 17:33N 51°49' E 002°27'31 9.4
2016-Aug-23 14:16N 52°13' E 002°59'811.4
2016-Aug-23 13:34N 52°19' E 003°07'1211.9
2016-Aug-23 12:33N 52°29' E 003°18'1212.2
2016-Aug-23 11:33N 52°38' E 003°31'1211.7
2016-Aug-23 10:34N 52°47' E 003°45'1110.7
2016-Aug-23 09:31N 52°55' E 003°57'9 9.9
2016-Aug-23 08:34N 53°02' E 004°07'10 9.3
2016-Aug-23 07:27N 53°09' E 004°20'8 8.9
2016-Aug-23 06:33N 53°16' E 004°28'10 9.8
2016-Aug-23 05:29N 53°25' E 004°36'1010.6
2016-Aug-23 04:33N 53°31' E 004°49'1211.5
2016-Aug-23 03:33N 53°34' E 005°08'1111.3
2016-Aug-23 02:34N 53°38' E 005°26'1110.6
2016-Aug-23 01:34N 53°41' E 005°43'10 9.8
2016-Aug-23 00:34N 53°44' E 005°59'9 9.1
2016-Aug-22 23:33N 53°47' E 006°13'8 8.5
2016-Aug-22 22:34N 53°50' E 006°27'8 8.3
2016-Aug-22 21:33N 53°52' E 006°41'9 8.9
2016-Aug-22 20:34N 53°54' E 006°55'10 9.8
2016-Aug-22 19:33N 53°56' E 007°11'1010.5
2016-Aug-22 18:33N 53°59' E 007°29'1010.5
2016-Aug-22 17:34N 54°01' E 007°46'1110.8
2016-Aug-22 16:33N 54°01' E 008°05'1111.0
2016-Aug-22 15:34N 53°60' E 008°23'10 9.8
2016-Aug-22 14:34N 53°57' E 008°39'8 8.1
2016-Aug-22 13:34N 53°51' E 008°48'8 7.5
2016-Aug-22 12:33N 53°51' E 009°00'5 5.4
2016-Aug-22 11:33N 53°54' E 009°09'2 1.7
2016-Aug-22 10:33N 53°55' E 009°11'0 0.1
2016-Aug-22 09:33N 53°55' E 009°11'0 0.0
2016-Aug-22 08:33N 53°55' E 009°11'7 7.0
2016-Aug-22 07:33N 54°00' E 009°18'11 7.7
2016-Aug-22 06:09N 54°10' E 009°26'4 6.6
2016-Aug-22 05:28N 54°12' E 009°33'13 6.8
2016-Aug-22 03:33N 54°22' E 009°47'8 7.7
2016-Aug-22 02:33N 54°21' E 010°01'5 4.7
2016-Aug-22 01:33N 54°22' E 010°08'1 1.0
2016-Aug-22 00:33N 54°22' E 010°10'2 1.9
2016-Aug-21 23:34N 54°24' E 010°12'9 9.3
2016-Aug-21 22:34N 54°31' E 010°22'10 9.9
2016-Aug-21 21:33N 54°35' E 010°38'1010.2
2016-Aug-21 20:33N 54°35' E 010°56'1110.8
2016-Aug-21 19:34N 54°35' E 011°14'1110.7
2016-Aug-21 18:33N 54°31' E 011°31'1110.5
2016-Aug-21 17:33N 54°27' E 011°48'1010.5
2016-Aug-21 16:33N 54°27' E 012°06'1010.0
2016-Aug-21 15:33N 54°36' E 012°15'1010.5
2016-Aug-21 14:33N 54°42' E 012°30'1010.2
2016-Aug-21 13:34N 54°48' E 012°45'10 9.7
2016-Aug-21 12:33N 54°51' E 013°01'10 9.8
2016-Aug-21 11:33N 54°53' E 013°17'10 9.7
2016-Aug-21 10:30N 54°54' E 013°35'9 9.6
2016-Aug-21 09:33N 54°54' E 013°51'10 9.9
2016-Aug-21 08:33N 54°55' E 014°08'10 9.9
2016-Aug-21 07:33N 54°56' E 014°25'10 9.7
2016-Aug-21 06:33N 54°56' E 014°42'10 9.8
2016-Aug-21 05:33N 54°57' E 014°59'9 9.4
2016-Aug-21 04:33N 54°58' E 015°15'10 9.6
2016-Aug-21 03:33N 55°01' E 015°31'1010.1
2016-Aug-21 02:32N 55°03' E 015°49'5110.3
2016-Aug-20 21:34N 55°14' E 017°16'1010.0
2016-Aug-20 20:34N 55°17' E 017°33'1010.1
2016-Aug-20 19:33N 55°19' E 017°50'1010.3
2016-Aug-20 18:33N 55°21' E 018°08'1010.4
2016-Aug-20 17:33N 55°24' E 018°26'10 9.9
2016-Aug-20 16:33N 55°26' E 018°43'1010.1
2016-Aug-20 15:33N 55°28' E 019°00'1010.1
2016-Aug-20 14:33N 55°30' E 019°18'1010.1
2016-Aug-20 13:33N 55°32' E 019°35'1010.0
2016-Aug-20 12:33N 55°34' E 019°52'1010.1
2016-Aug-20 11:33N 55°36' E 020°10'1010.1
2016-Aug-20 10:33N 55°38' E 020°27'1010.2
2016-Aug-20 09:33N 55°40' E 020°45'  
Track history (hours):
 
Tides and Currents Weather Stations Pressure Air Temp Water Temp Dewpoint Dewpoint Depression Visibility Wind Speed Wind Dir Waves Ship Positions

Avalon

Last reported at 2016-Aug-28 16:33 UTC. Time now 2016-Aug-28 16:44 UTC.
Position N 50°24' E 000°11'.

Length 89 m; draft 3.4 m.

Type: Cargo ship. MMSI: 246578000.

Date/timePositionNaut miles runAvg speedWind from/ knotsBaromVisibWave heightAir tempDewpointWater temp
2016-Aug-28 16:33N 50°24' E 000°11'1010.6
2016-Aug-28 15:33N 50°21' W 000°05'1010.1
2016-Aug-28 14:32N 50°19' W 000°21'90 8.9
2016-Aug-28 04:31N 50°08' W 002°40'1010.9
2016-Aug-28 03:33N 50°07' W 002°56'1110.5
2016-Aug-28 02:33N 50°05' W 003°12'1010.1
2016-Aug-28 01:34N 50°04' W 003°28'10 9.9
2016-Aug-28 00:33N 50°03' W 003°43'10 9.6
2016-Aug-27 23:33N 50°02' W 003°58'9 9.4
2016-Aug-27 22:33N 50°00' W 004°12'9 9.4
2016-Aug-27 21:33N 49°59' W 004°27'9 9.3
2016-Aug-27 20:33N 49°58' W 004°41'9 9.2
2016-Aug-27 19:33N 49°57' W 004°55'9 8.9
2016-Aug-27 18:33N 49°55' W 005°09'9 8.9
2016-Aug-27 17:31N 49°56' W 005°23'9 9.3
2016-Aug-27 16:33N 49°56' W 005°37'14 9.5
2016-Aug-27 15:05N 49°57' W 005°58'42 9.4
2016-Aug-27 10:33N 50°39' W 006°11'9 9.2
2016-Aug-27 09:33N 50°48' W 006°15'10 9.5
2016-Aug-27 08:33N 50°57' W 006°20'10 9.9
2016-Aug-27 07:33N 51°06' W 006°25'1010.1
2016-Aug-27 06:33N 51°16' W 006°31'2010.0
2016-Aug-27 04:32N 51°35' W 006°41'10 9.6
2016-Aug-27 03:33N 51°44' W 006°46'9 9.5
2016-Aug-27 02:33N 51°53' W 006°50'10 9.7
2016-Aug-27 01:33N 52°02' W 006°55'9 9.4
2016-Aug-27 00:33N 52°12' W 006°56'7 7.0
2016-Aug-26 23:33N 52°18' W 007°01'4 0.2
2016-Aug-25 23:33N 52°22' W 006°59'6 5.9
2016-Aug-25 22:33N 52°16' W 006°59'7 7.3
2016-Aug-25 21:34N 52°09' W 006°57'1 1.2
2016-Aug-25 20:34N 52°08' W 006°58'6 5.7
2016-Aug-25 19:33N 52°02' W 006°55'8 7.8
2016-Aug-25 18:33N 51°55' W 006°52'6 6.3
2016-Aug-25 17:33N 51°49' W 006°49'10 9.6
2016-Aug-25 16:33N 51°40' W 006°44'9 9.4
2016-Aug-25 15:34N 51°31' W 006°38'9 9.4
2016-Aug-25 14:33N 51°22' W 006°33'9 9.1
2016-Aug-25 13:34N 51°14' W 006°27'9 9.3
2016-Aug-25 12:34N 51°05' W 006°22'9 9.4
2016-Aug-25 11:33N 50°57' W 006°16'10 9.4
2016-Aug-25 10:31N 50°48' W 006°09'10 9.5
2016-Aug-25 09:29N 50°39' W 006°04'9 9.8
2016-Aug-25 08:33N 50°30' W 005°59'9 9.5
2016-Aug-25 07:33N 50°21' W 005°54'10 9.9
2016-Aug-25 06:33N 50°11' W 005°52'15 7.7
2016-Aug-25 04:33N 49°58' W 005°39'1110.1
2016-Aug-25 03:31N 49°57' W 005°22'1110.7
2016-Aug-25 02:29N 49°56' W 005°05'910.3
2016-Aug-25 01:34N 49°58' W 004°51'10 9.7
2016-Aug-25 00:34N 49°60' W 004°36'9 9.2
2016-Aug-24 23:34N 50°01' W 004°22'9 8.9
2016-Aug-24 22:32N 50°03' W 004°08'8 8.6
2016-Aug-24 21:33N 50°04' W 003°55'9 8.8
2016-Aug-24 20:34N 50°06' W 003°41'10 9.7
2016-Aug-24 19:34N 50°07' W 003°26'1110.7
2016-Aug-24 18:34N 50°10' W 003°10'1211.5
2016-Aug-24 17:33N 50°12' W 002°53'1211.8
2016-Aug-24 16:33N 50°15' W 002°34'2010.2
2016-Aug-24 14:33N 50°18' W 002°03'9 8.0
2016-Aug-24 13:22N 50°20' W 001°49'6 7.0
2016-Aug-24 12:33N 50°21' W 001°40'7 6.8
2016-Aug-24 11:34N 50°22' W 001°29'7 7.2
2016-Aug-24 10:32N 50°23' W 001°18'8 8.3
2016-Aug-24 09:34N 50°25' W 001°05'1110.5
2016-Aug-24 08:31N 50°26' W 000°48'1411.9
2016-Aug-24 07:22N 50°29' W 000°27'1011.6
2016-Aug-24 06:29N 50°31' W 000°12'2110.9
2016-Aug-24 04:33N 50°37' E 000°20'10 9.7
2016-Aug-24 03:33N 50°39' E 000°35'22 8.8
2016-Aug-24 01:05N 50°52' E 001°03'5 9.3
2016-Aug-24 00:33N 50°55' E 001°09'1111.0
2016-Aug-23 23:34N 51°02' E 001°23'1312.8
2016-Aug-23 22:34N 51°10' E 001°38'1211.9
2016-Aug-23 21:33N 51°20' E 001°50'1110.6
2016-Aug-23 20:34N 51°29' E 001°58'10 9.5
2016-Aug-23 19:33N 51°36' E 002°08'9 8.8
2016-Aug-23 18:34N 51°43' E 002°17'8 8.5
2016-Aug-23 17:33N 51°49' E 002°27'31 9.4
2016-Aug-23 14:16N 52°13' E 002°59'811.4
2016-Aug-23 13:34N 52°19' E 003°07'1211.9
2016-Aug-23 12:33N 52°29' E 003°18'1212.2
2016-Aug-23 11:33N 52°38' E 003°31'1211.7
2016-Aug-23 10:34N 52°47' E 003°45'1110.7
2016-Aug-23 09:31N 52°55' E 003°57'9 9.9
2016-Aug-23 08:34N 53°02' E 004°07'10 9.3
2016-Aug-23 07:27N 53°09' E 004°20'8 8.9
2016-Aug-23 06:33N 53°16' E 004°28'10 9.8
2016-Aug-23 05:29N 53°25' E 004°36'1010.6
2016-Aug-23 04:33N 53°31' E 004°49'1211.5
2016-Aug-23 03:33N 53°34' E 005°08'1111.3
2016-Aug-23 02:34N 53°38' E 005°26'1110.6
2016-Aug-23 01:34N 53°41' E 005°43'10 9.8
2016-Aug-23 00:34N 53°44' E 005°59'9 9.1
2016-Aug-22 23:33N 53°47' E 006°13'8 8.5
2016-Aug-22 22:34N 53°50' E 006°27'8 8.3
2016-Aug-22 21:33N 53°52' E 006°41'9 8.9
2016-Aug-22 20:34N 53°54' E 006°55'10 9.8
2016-Aug-22 19:33N 53°56' E 007°11'1010.5
2016-Aug-22 18:33N 53°59' E 007°29'1010.5
2016-Aug-22 17:34N 54°01' E 007°46'1110.8
2016-Aug-22 16:33N 54°01' E 008°05'1111.0
2016-Aug-22 15:34N 53°60' E 008°23'10 9.8
2016-Aug-22 14:34N 53°57' E 008°39'8 8.1
2016-Aug-22 13:34N 53°51' E 008°48'8 7.5
2016-Aug-22 12:33N 53°51' E 009°00'5 5.4
2016-Aug-22 11:33N 53°54' E 009°09'2 1.7
2016-Aug-22 10:33N 53°55' E 009°11'0 0.1
2016-Aug-22 09:33N 53°55' E 009°11'0 0.0
2016-Aug-22 08:33N 53°55' E 009°11'7 7.0
2016-Aug-22 07:33N 54°00' E 009°18'11 7.7
2016-Aug-22 06:09N 54°10' E 009°26'4 6.6
2016-Aug-22 05:28N 54°12' E 009°33'13 6.8
2016-Aug-22 03:33N 54°22' E 009°47'8 7.7
2016-Aug-22 02:33N 54°21' E 010°01'5 4.7
2016-Aug-22 01:33N 54°22' E 010°08'1 1.0
2016-Aug-22 00:33N 54°22' E 010°10'2 1.9
2016-Aug-21 23:34N 54°24' E 010°12'9 9.3
2016-Aug-21 22:34N 54°31' E 010°22'10 9.9
2016-Aug-21 21:33N 54°35' E 010°38'1010.2
2016-Aug-21 20:33N 54°35' E 010°56'1110.8
2016-Aug-21 19:34N 54°35' E 011°14'1110.7
2016-Aug-21 18:33N 54°31' E 011°31'1110.5
2016-Aug-21 17:33N 54°27' E 011°48'1010.5
2016-Aug-21 16:33N 54°27' E 012°06'1010.0
2016-Aug-21 15:33N 54°36' E 012°15'1010.5
2016-Aug-21 14:33N 54°42' E 012°30'1010.2
2016-Aug-21 13:34N 54°48' E 012°45'10 9.7
2016-Aug-21 12:33N 54°51' E 013°01'10 9.8
2016-Aug-21 11:33N 54°53' E 013°17'10 9.7
2016-Aug-21 10:30N 54°54' E 013°35'9 9.6
2016-Aug-21 09:33N 54°54' E 013°51'10 9.9
2016-Aug-21 08:33N 54°55' E 014°08'10 9.9
2016-Aug-21 07:33N 54°56' E 014°25'10 9.7
2016-Aug-21 06:33N 54°56' E 014°42'10 9.8
2016-Aug-21 05:33N 54°57' E 014°59'9 9.4
2016-Aug-21 04:33N 54°58' E 015°15'10 9.6
2016-Aug-21 03:33N 55°01' E 015°31'1010.1
2016-Aug-21 02:32N 55°03' E 015°49'5110.3
2016-Aug-20 21:34N 55°14' E 017°16'1010.0
2016-Aug-20 20:34N 55°17' E 017°33'1010.1
2016-Aug-20 19:33N 55°19' E 017°50'1010.3
2016-Aug-20 18:33N 55°21' E 018°08'1010.4
2016-Aug-20 17:33N 55°24' E 018°26'10 9.9
2016-Aug-20 16:33N 55°26' E 018°43'1010.1
2016-Aug-20 15:33N 55°28' E 019°00'1010.1
2016-Aug-20 14:33N 55°30' E 019°18'1010.1
2016-Aug-20 13:33N 55°32' E 019°35'1010.0
2016-Aug-20 12:33N 55°34' E 019°52'1010.1
2016-Aug-20 11:33N 55°36' E 020°10'1010.1
2016-Aug-20 10:33N 55°38' E 020°27'1010.2
2016-Aug-20 09:33N 55°40' E 020°45'  

Dump ship's entire track history